Fort Lupton, Colorado
Current Conditions -  °F | °C
As of 11:53 AM on Sunday 21 Dec 2014 (Local Time) from KDEN Reporting Station
Broken Clouds Broken Clouds  
Wind Chill: 47°   Ceiling: 11000
Heat Index: 49°   Visibility: 10mi
Dew Point: 19°   Wind: 5mph
Humidity: 31%   Direction: NA
Pressure: 29.59"   Gusts: NA
Location:  40.08°N, 104.81°W
Report Text: KDEN 211853Z VRB04KT 10SM FEW080 BKN110 09/M07 A2959 RMK AO2 SLP004 T00941072
Loading
Personal Weather Stations






























Interactive Weather Map New forecast layout! Learn more

10-Day Weather Forecast

Advertisements
Track Severe Weather on mobile